Winston-Salem, NC (27104)

6:28 AM EST on December 07, 2016 (GMT -0500)
Buena Vista | | Change Station

Elev 985 ft 36.11 °N, 80.27 °W | Updated 138 days ago

Partly Cloudy
Partly Cloudy
71 °F
Feels Like 71 °F
N
2
Wind Variable Wind from SSW
Gusts mph

Today
High -- | Low -- °F
--% Chance of Precip.
Yesterday
High -- | Low -- °F
Precip. -- in
Pressure 30.00 in
Visibility 10.0 miles
Clouds Clear
Dew Point 64 °F
Humidity 80%
Rainfall in
Snow Depth Not available.
7:19 AM 5:06 PM
First Quarter, 51% visible
METAR KINT 071054Z AUTO 33008KT 10SM CLR 06/02 A2999 RMK AO2 SLP157 T00610022
Pressure 30.00 in
Visibility 10.0 miles
Clouds Clear
Dew Point 64 °F
Humidity 80%
Rainfall in
Snow Depth Not available.
7:19 AM 5:06 PM
First Quarter, 51% visible
METAR KINT 071054Z AUTO 33008KT 10SM CLR 06/02 A2999 RMK AO2 SLP157 T00610022

10-Day Weather Forecast

Almanac

Astronomy

Dec. 07, 2016 Rise Set
Actual Time
Civil Twilight
Nautical Twilight
Astronomical Twilight
Moon
Length of Visible Light
Length of Day
Tomorrow will be .
, % of the Moon is Illuminated

Today's Extremes

State Highs State Lows

Community

WunderPhotos

Upload Photos

1,956,111 photos uploaded!

WunderBlog® & News

Nearby

Air Quality

  Air Quality AQ Index Pollutant
Not available.

Snow Depth

Station Depth Elevation

Earthquake Activity

City Distance Mag. Time & Date
Minimum magnitude displayed is 2.5.

Coastal Water Temperatures

Place Temperature

Stations

Nearby Weather Stations

Station Location Temp. Windchill Dew Point Humidity Wind Precip. Elev Updated Type
                   

Watches & Warnings

There are currently no watches in effect.